Time;durP1;ratioP1;P1;durP2;ratioP2;P2;SDS_P1;SDS_P2;PMS_P1;PMS_P2;Temp;Humidity;BMP_temperature;BMP_pressure;BME280_temperature;BME280_humidity;BME280_pressure;Samples;Min_cycle;Max_cycle;Signal;HPM_P1;HPM_P2
2024/04/15 00:01:42;;;;;;;1.00;0.73;;;;;;;;;;5409014;26;20449;-76
2024/04/15 00:04:08;;;;;;;1.17;1.10;;;;;;;;;;5395142;26;20011;-77
2024/04/15 00:06:34;;;;;;;0.70;0.70;;;;;;;;;;5412541;26;20010;-79
2024/04/15 00:09:00;;;;;;;0.70;0.70;;;;;;;;;;5415192;26;20004;-77
2024/04/15 00:11:27;;;;;;;0.90;0.90;;;;;;;;;;5410931;26;20000;-77
2024/04/15 00:13:53;;;;;;;0.90;0.90;;;;;;;;;;5415543;26;20011;-77
2024/04/15 00:16:19;;;;;;;0.82;0.82;;;;;;;;;;5415368;26;20015;-76
2024/04/15 00:18:45;;;;;;;0.90;0.90;;;;;;;;;;5409108;26;20000;-76
2024/04/15 00:21:12;;;;;;;0.82;0.82;;;;;;;;;;5407726;26;20007;-77
2024/04/15 00:23:38;;;;;;;0.90;0.90;;;;;;;;;;5415296;26;20004;-77
2024/04/15 00:26:04;;;;;;;0.88;0.88;;;;;;;;;;5415692;26;20526;-77
2024/04/15 00:28:30;;;;;;;1.10;1.10;;;;;;;;;;5414673;26;20068;-77
2024/04/15 00:30:57;;;;;;;1.70;1.50;;;;;;;;;;5409416;26;20020;-77
2024/04/15 00:33:23;;;;;;;0.82;0.82;;;;;;;;;;5385054;26;20000;-76
2024/04/15 00:35:49;;;;;;;0.75;0.75;;;;;;;;;;5402407;26;19999;-76
2024/04/15 00:38:16;;;;;;;0.93;0.77;;;;;;;;;;5416573;26;20014;-76
2024/04/15 00:40:43;;;;;;;0.90;0.90;;;;;;;;;;5407204;26;20007;-77
2024/04/15 00:43:09;;;;;;;1.20;1.10;;;;;;;;;;5417978;26;20004;-77
2024/04/15 00:45:35;;;;;;;1.08;1.08;;;;;;;;;;5416814;26;20010;-78
2024/04/15 00:48:02;;;;;;;0.90;0.90;;;;;;;;;;5416643;26;20430;-77
2024/04/15 00:50:30;;;;;;;0.85;0.85;;;;;;;;;;5416711;26;20004;-76
2024/04/15 00:52:56;;;;;;;0.68;0.68;;;;;;;;;;5422319;26;20346;-76
2024/04/15 00:55:23;;;;;;;0.70;0.70;;;;;;;;;;5417571;26;20007;-77
2024/04/15 00:57:50;;;;;;;1.00;0.98;;;;;;;;;;5396605;26;20016;-78
2024/04/15 01:00:16;;;;;;;1.02;1.02;;;;;;;;;;5399656;26;20070;-78
2024/04/15 01:02:43;;;;;;;0.90;0.90;;;;;;;;;;5399116;26;20450;-77
2024/04/15 01:05:13;;;;;;;0.43;0.43;;;;;;;;;;5394270;26;20091;-77
2024/04/15 01:07:39;;;;;;;1.02;0.80;;;;;;;;;;5405542;26;20019;-77
2024/04/15 01:10:06;;;;;;;0.63;0.63;;;;;;;;;;5420501;26;20000;-78
2024/04/15 01:12:33;;;;;;;0.80;0.80;;;;;;;;;;5409207;26;20058;-78
2024/04/15 01:14:59;;;;;;;0.88;0.88;;;;;;;;;;5417236;26;20004;-78
2024/04/15 01:17:25;;;;;;;0.80;0.80;;;;;;;;;;5402365;26;20010;-78
2024/04/15 01:19:52;;;;;;;1.20;1.10;;;;;;;;;;5404067;26;20014;-78
2024/04/15 01:22:21;;;;;;;0.70;0.70;;;;;;;;;;5405144;26;20117;-77
2024/04/15 01:24:50;;;;;;;0.60;0.60;;;;;;;;;;5411763;26;20370;-77
2024/04/15 01:27:17;;;;;;;0.68;0.68;;;;;;;;;;5411511;26;20000;-78
2024/04/15 01:29:43;;;;;;;0.50;0.50;;;;;;;;;;5418756;26;19995;-76
2024/04/15 01:32:10;;;;;;;0.60;0.60;;;;;;;;;;5418516;26;20002;-78
2024/04/15 01:34:36;;;;;;;0.60;0.60;;;;;;;;;;5419379;26;20008;-78
2024/04/15 01:37:03;;;;;;;0.73;0.73;;;;;;;;;;5418134;26;20010;-76
2024/04/15 01:39:29;;;;;;;0.50;0.50;;;;;;;;;;5417458;26;20036;-77
2024/04/15 01:41:55;;;;;;;0.70;0.70;;;;;;;;;;5418649;26;20004;-77
2024/04/15 01:44:21;;;;;;;0.50;0.50;;;;;;;;;;5402405;26;20011;-77
2024/04/15 01:46:47;;;;;;;0.60;0.60;;;;;;;;;;5417621;26;20410;-76
2024/04/15 01:49:14;;;;;;;0.50;0.50;;;;;;;;;;5419436;26;20004;-77
2024/04/15 01:51:40;;;;;;;0.50;0.50;;;;;;;;;;5419847;26;20072;-76
2024/04/15 01:54:06;;;;;;;0.63;0.63;;;;;;;;;;5392884;26;20004;-78
2024/04/15 01:56:32;;;;;;;0.60;0.60;;;;;;;;;;5412819;26;20006;-75
2024/04/15 01:58:59;;;;;;;0.52;0.52;;;;;;;;;;5420120;26;20069;-77
2024/04/15 02:01:25;;;;;;;0.60;0.60;;;;;;;;;;5403991;26;20346;-77
2024/04/15 02:03:51;;;;;;;0.50;0.50;;;;;;;;;;5391016;26;19995;-77
2024/04/15 02:06:18;;;;;;;0.43;0.43;;;;;;;;;;5421113;26;20015;-78
2024/04/15 02:08:44;;;;;;;0.50;0.45;;;;;;;;;;5421031;26;19999;-77
2024/04/15 02:11:10;;;;;;;1.55;0.80;;;;;;;;;;5421857;26;20000;-77
2024/04/15 02:13:36;;;;;;;0.57;0.57;;;;;;;;;;5422110;26;20398;-77
2024/04/15 02:16:02;;;;;;;0.60;0.60;;;;;;;;;;5421338;26;20010;-75
2024/04/15 02:18:28;;;;;;;1.00;0.80;;;;;;;;;;5419643;26;20005;-76
2024/04/15 02:20:55;;;;;;;1.00;1.00;;;;;;;;;;5410941;26;20008;-76
2024/04/15 02:23:21;;;;;;;0.63;0.63;;;;;;;;;;5397684;26;19999;-77
2024/04/15 02:25:47;;;;;;;0.65;0.65;;;;;;;;;;5399372;26;20000;-78
2024/04/15 02:28:13;;;;;;;0.80;0.80;;;;;;;;;;5431308;26;19991;-76
2024/04/15 02:30:39;;;;;;;1.10;0.80;;;;;;;;;;5424085;26;20100;-78
2024/04/15 02:33:06;;;;;;;1.30;0.90;;;;;;;;;;5395214;26;20012;-78
2024/04/15 02:35:32;;;;;;;0.75;0.75;;;;;;;;;;5435056;26;19988;-74
2024/04/15 02:37:58;;;;;;;0.95;0.85;;;;;;;;;;5437873;26;19992;-78
2024/04/15 02:40:24;;;;;;;0.90;0.90;;;;;;;;;;5403783;26;20129;-78
2024/04/15 02:42:50;;;;;;;0.80;0.80;;;;;;;;;;5423047;26;20475;-78
2024/04/15 02:45:16;;;;;;;0.65;0.65;;;;;;;;;;5406490;26;20014;-77
2024/04/15 02:47:42;;;;;;;0.70;0.70;;;;;;;;;;5399770;26;20035;-78
2024/04/15 02:50:08;;;;;;;0.60;0.60;;;;;;;;;;5431751;26;20000;-76
2024/04/15 02:52:35;;;;;;;0.70;0.70;;;;;;;;;;5408618;26;20455;-76
2024/04/15 02:55:01;;;;;;;0.70;0.70;;;;;;;;;;5402309;26;19996;-77
2024/04/15 02:57:27;;;;;;;0.50;0.50;;;;;;;;;;5398567;26;20000;-80
2024/04/15 02:59:53;;;;;;;0.75;0.70;;;;;;;;;;5420902;26;20018;-79
2024/04/15 03:02:19;;;;;;;0.90;0.70;;;;;;;;;;5421458;26;19991;-80
2024/04/15 03:04:45;;;;;;;0.90;0.60;;;;;;;;;;5418131;26;20069;-80
2024/04/15 03:07:11;;;;;;;0.60;0.60;;;;;;;;;;5426050;26;19992;-81
2024/04/15 03:09:38;;;;;;;0.43;0.43;;;;;;;;;;5431060;26;20003;-79
2024/04/15 03:12:05;;;;;;;0.70;0.63;;;;;;;;;;5436503;26;20128;-79
2024/04/15 03:14:31;;;;;;;0.30;0.30;;;;;;;;;;5439273;26;19998;-80
2024/04/15 03:16:57;;;;;;;0.60;0.60;;;;;;;;;;5438748;26;19995;-79
2024/04/15 03:19:24;;;;;;;0.50;0.50;;;;;;;;;;5439534;26;19991;-78
2024/04/15 03:21:50;;;;;;;0.75;0.75;;;;;;;;;;5414025;26;20326;-79
2024/04/15 03:24:16;;;;;;;0.57;0.57;;;;;;;;;;5420281;26;20085;-80
2024/04/15 03:26:43;;;;;;;0.50;0.50;;;;;;;;;;5420879;26;20350;-80
2024/04/15 03:29:09;;;;;;;0.63;0.63;;;;;;;;;;5406144;26;20003;-79
2024/04/15 03:31:35;;;;;;;0.90;0.90;;;;;;;;;;5435855;26;20003;-79
2024/04/15 03:34:02;;;;;;;0.73;0.73;;;;;;;;;;5438656;26;20007;-78
2024/04/15 03:36:28;;;;;;;0.63;0.60;;;;;;;;;;5439505;26;20022;-79
2024/04/15 03:38:54;;;;;;;0.90;0.90;;;;;;;;;;5439312;26;20008;-79
2024/04/15 03:41:21;;;;;;;2.60;1.27;;;;;;;;;;5432192;26;19992;-80
2024/04/15 03:43:47;;;;;;;1.38;1.27;;;;;;;;;;5434869;26;20046;-82
2024/04/15 03:46:13;;;;;;;1.10;1.00;;;;;;;;;;5396865;26;20059;-81
2024/04/15 03:48:39;;;;;;;3.35;1.40;;;;;;;;;;5419470;26;19992;-80
2024/04/15 03:51:05;;;;;;;2.63;1.00;;;;;;;;;;5419138;26;20015;-82
2024/04/15 03:53:32;;;;;;;1.42;1.33;;;;;;;;;;5419372;26;19995;-81
2024/04/15 03:55:58;;;;;;;1.52;1.30;;;;;;;;;;5430193;26;20000;-80
2024/04/15 03:58:24;;;;;;;1.90;1.35;;;;;;;;;;5403395;26;19996;-80
2024/04/15 04:00:51;;;;;;;2.63;1.58;;;;;;;;;;5408526;26;20014;-83
2024/04/15 04:03:17;;;;;;;1.88;1.55;;;;;;;;;;5411015;26;20012;-80
2024/04/15 04:05:43;;;;;;;2.63;1.85;;;;;;;;;;5421538;26;20015;-80
2024/04/15 04:08:10;;;;;;;4.07;1.42;;;;;;;;;;5422229;26;20016;-80
2024/04/15 04:10:36;;;;;;;8.43;1.83;;;;;;;;;;5415759;26;19996;-80
2024/04/15 04:13:02;;;;;;;1.40;1.30;;;;;;;;;;5406843;26;20008;-80
2024/04/15 04:15:28;;;;;;;1.67;1.27;;;;;;;;;;5421719;26;19996;-80
2024/04/15 04:17:54;;;;;;;1.52;1.20;;;;;;;;;;5405231;26;20011;-79
2024/04/15 04:20:20;;;;;;;5.15;2.40;;;;;;;;;;5410083;26;20059;-80
2024/04/15 04:22:47;;;;;;;3.20;1.88;;;;;;;;;;5406109;26;20035;-80
2024/04/15 04:25:13;;;;;;;2.95;1.75;;;;;;;;;;5420111;26;20004;-80
2024/04/15 04:27:39;;;;;;;3.80;1.95;;;;;;;;;;5421710;26;20035;-80
2024/04/15 04:30:06;;;;;;;4.40;1.80;;;;;;;;;;5420855;26;20019;-81
2024/04/15 04:32:32;;;;;;;4.13;2.30;;;;;;;;;;5422478;26;19996;-81
2024/04/15 04:34:58;;;;;;;2.22;2.03;;;;;;;;;;5410119;26;19999;-82
2024/04/15 04:37:24;;;;;;;2.85;1.80;;;;;;;;;;5408006;26;20007;-79
2024/04/15 04:39:51;;;;;;;3.08;1.92;;;;;;;;;;5412104;26;20015;-79
2024/04/15 04:42:17;;;;;;;4.68;2.03;;;;;;;;;;5409485;26;20006;-80
2024/04/15 04:44:43;;;;;;;2.60;1.88;;;;;;;;;;5411481;26;20025;-79
2024/04/15 04:47:09;;;;;;;3.05;1.92;;;;;;;;;;5423795;26;19996;-80
2024/04/15 04:49:35;;;;;;;2.65;1.67;;;;;;;;;;5411123;26;20025;-80
2024/04/15 04:52:02;;;;;;;3.03;2.20;;;;;;;;;;5422528;26;20007;-80
2024/04/15 04:54:28;;;;;;;3.25;2.50;;;;;;;;;;5422247;26;20006;-80
2024/04/15 04:56:54;;;;;;;1.80;1.70;;;;;;;;;;5415804;26;20000;-80
2024/04/15 04:59:22;;;;;;;1.55;1.40;;;;;;;;;;5415057;26;19999;-80
2024/04/15 05:01:48;;;;;;;1.45;1.35;;;;;;;;;;5424340;26;20010;-81
2024/04/15 05:04:15;;;;;;;1.80;1.45;;;;;;;;;;5424254;26;20455;-81
2024/04/15 05:06:41;;;;;;;2.58;1.90;;;;;;;;;;5421059;26;20047;-78
2024/04/15 05:09:07;;;;;;;4.25;1.88;;;;;;;;;;5402492;26;20011;-77
2024/04/15 05:11:33;;;;;;;2.08;1.70;;;;;;;;;;5406874;26;20010;-79
2024/04/15 05:13:59;;;;;;;1.70;1.60;;;;;;;;;;5414636;26;20010;-79
2024/04/15 05:16:25;;;;;;;1.42;1.33;;;;;;;;;;5422107;26;20000;-79
2024/04/15 05:18:52;;;;;;;1.35;1.27;;;;;;;;;;5408290;26;20069;-79
2024/04/15 05:21:18;;;;;;;1.40;1.30;;;;;;;;;;5427712;26;20003;-80
2024/04/15 05:23:44;;;;;;;4.05;1.95;;;;;;;;;;5430123;26;20010;-81
2024/04/15 05:26:11;;;;;;;2.28;1.88;;;;;;;;;;5425781;26;19992;-77
2024/04/15 05:28:37;;;;;;;2.03;1.90;;;;;;;;;;5436279;26;20019;-77
2024/04/15 05:31:03;;;;;;;2.97;1.98;;;;;;;;;;5440839;26;19999;-76
2024/04/15 05:33:29;;;;;;;3.70;1.77;;;;;;;;;;5422373;26;20053;-77
2024/04/15 05:35:55;;;;;;;1.60;1.50;;;;;;;;;;5437100;26;19987;-75
2024/04/15 05:38:21;;;;;;;1.92;1.58;;;;;;;;;;5436186;26;19991;-78
2024/04/15 05:40:48;;;;;;;1.98;1.48;;;;;;;;;;5411303;26;20004;-75
2024/04/15 05:43:14;;;;;;;1.65;1.55;;;;;;;;;;5438499;26;19991;-76
2024/04/15 05:45:41;;;;;;;2.17;1.50;;;;;;;;;;5439323;26;19992;-78
2024/04/15 05:48:08;;;;;;;2.70;1.70;;;;;;;;;;5429398;26;20046;-78
2024/04/15 05:50:34;;;;;;;2.15;1.55;;;;;;;;;;5420935;26;19984;-78
2024/04/15 05:53:00;;;;;;;2.25;1.63;;;;;;;;;;5427906;26;19999;-80
2024/04/15 05:55:26;;;;;;;2.10;1.55;;;;;;;;;;5411196;26;20000;-77
2024/04/15 05:57:53;;;;;;;2.40;1.70;;;;;;;;;;5422518;26;20006;-80
2024/04/15 06:00:20;;;;;;;1.80;1.70;;;;;;;;;;5396612;26;20059;-77
2024/04/15 06:02:46;;;;;;;1.67;1.58;;;;;;;;;;5419795;26;20425;-79
2024/04/15 06:05:12;;;;;;;5.22;2.17;;;;;;;;;;5417203;26;20396;-80
2024/04/15 06:07:38;;;;;;;3.67;1.80;;;;;;;;;;5411708;26;20010;-79
2024/04/15 06:10:05;;;;;;;6.95;2.15;;;;;;;;;;5417502;26;19999;-78
2024/04/15 06:12:31;;;;;;;2.15;1.60;;;;;;;;;;5424417;26;19999;-80
2024/04/15 06:14:58;;;;;;;2.33;2.00;;;;;;;;;;5416484;26;20450;-81
2024/04/15 06:17:24;;;;;;;1.90;1.75;;;;;;;;;;5426026;26;20000;-80
2024/04/15 06:19:50;;;;;;;1.92;1.45;;;;;;;;;;5408280;26;20010;-79
2024/04/15 06:22:17;;;;;;;1.35;1.25;;;;;;;;;;5430285;26;20024;-75
2024/04/15 06:24:43;;;;;;;1.90;1.60;;;;;;;;;;5425474;26;20349;-79
2024/04/15 06:27:10;;;;;;;1.23;1.20;;;;;;;;;;5401593;26;20355;-80
2024/04/15 06:29:36;;;;;;;1.58;1.48;;;;;;;;;;5419184;26;20078;-80
2024/04/15 06:32:02;;;;;;;1.40;1.30;;;;;;;;;;5410316;26;19999;-80
2024/04/15 06:34:29;;;;;;;1.92;1.77;;;;;;;;;;5420496;26;20014;-76
2024/04/15 06:36:56;;;;;;;1.70;1.60;;;;;;;;;;5426681;26;19995;-77
2024/04/15 06:39:22;;;;;;;1.80;1.70;;;;;;;;;;5419061;26;20053;-81
2024/04/15 06:41:48;;;;;;;3.35;1.67;;;;;;;;;;5414211;26;19995;-79
2024/04/15 06:44:15;;;;;;;2.60;1.55;;;;;;;;;;5418340;26;20354;-81
2024/04/15 06:46:42;;;;;;;1.67;1.58;;;;;;;;;;5405166;26;20081;-80
2024/04/15 06:49:08;;;;;;;2.03;1.63;;;;;;;;;;5412405;26;19996;-78
2024/04/15 06:51:37;;;;;;;2.47;2.28;;;;;;;;;;5403492;26;20019;-81
2024/04/15 06:54:03;;;;;;;3.58;2.95;;;;;;;;;;5423804;26;19999;-79
2024/04/15 06:56:30;;;;;;;3.40;2.65;;;;;;;;;;5420128;26;20011;-77
2024/04/15 06:58:56;;;;;;;2.88;2.20;;;;;;;;;;5429731;26;19995;-80
2024/04/15 07:01:22;;;;;;;2.38;2.00;;;;;;;;;;5411609;26;20007;-80
2024/04/15 07:03:48;;;;;;;4.38;1.92;;;;;;;;;;5421274;26;19999;-80
2024/04/15 07:06:14;;;;;;;1.98;1.77;;;;;;;;;;5416291;26;19996;-80
2024/04/15 07:08:40;;;;;;;2.33;1.65;;;;;;;;;;5407015;26;20027;-80
2024/04/15 07:11:07;;;;;;;2.78;1.92;;;;;;;;;;5423699;26;20019;-80
2024/04/15 07:13:33;;;;;;;1.55;1.45;;;;;;;;;;5409590;26;20338;-81
2024/04/15 07:15:59;;;;;;;1.77;1.50;;;;;;;;;;5415027;26;19996;-80
2024/04/15 07:18:25;;;;;;;1.67;1.58;;;;;;;;;;5399070;26;20003;-81
2024/04/15 07:20:51;;;;;;;2.00;1.50;;;;;;;;;;5424486;26;20076;-79
2024/04/15 07:23:17;;;;;;;1.40;1.30;;;;;;;;;;5395475;26;19996;-79
2024/04/15 07:25:44;;;;;;;0.82;0.82;;;;;;;;;;5421372;26;20019;-77
2024/04/15 07:28:10;;;;;;;1.10;1.10;;;;;;;;;;5422554;26;20080;-77
2024/04/15 07:30:36;;;;;;;0.60;0.60;;;;;;;;;;5426257;26;19995;-76
2024/04/15 07:33:03;;;;;;;1.00;1.00;;;;;;;;;;5401694;26;20015;-78
2024/04/15 07:35:31;;;;;;;0.63;0.63;;;;;;;;;;5420847;26;19995;-76
2024/04/15 07:37:58;;;;;;;2.20;1.73;;;;;;;;;;5414674;26;20006;-78
2024/04/15 07:40:24;;;;;;;3.53;1.50;;;;;;;;;;5409765;26;20009;-78
2024/04/15 07:42:50;;;;;;;1.42;1.27;;;;;;;;;;5425837;26;20010;-78
2024/04/15 07:45:16;;;;;;;2.10;1.83;;;;;;;;;;5426471;26;19995;-79
2024/04/15 07:47:42;;;;;;;1.52;1.33;;;;;;;;;;5409465;26;20032;-78
2024/04/15 07:50:09;;;;;;;1.63;1.40;;;;;;;;;;5424740;26;20007;-76
2024/04/15 07:52:35;;;;;;;1.65;1.05;;;;;;;;;;5425616;26;20395;-80
2024/04/15 07:55:01;;;;;;;3.00;1.58;;;;;;;;;;5425152;26;20055;-79
2024/04/15 07:57:27;;;;;;;2.45;1.98;;;;;;;;;;5425057;26;20076;-79
2024/04/15 07:59:53;;;;;;;3.63;2.20;;;;;;;;;;5423533;26;20007;-78
2024/04/15 08:02:19;;;;;;;4.20;2.60;;;;;;;;;;5407301;26;19999;-77
2024/04/15 08:04:46;;;;;;;3.00;2.03;;;;;;;;;;5405544;26;20434;-77
2024/04/15 08:07:13;;;;;;;3.75;1.90;;;;;;;;;;5417878;26;20543;-77
2024/04/15 08:09:39;;;;;;;2.58;1.42;;;;;;;;;;5417503;26;20007;-76
2024/04/15 08:12:05;;;;;;;2.30;1.27;;;;;;;;;;5414591;26;19996;-76
2024/04/15 08:14:31;;;;;;;1.55;1.35;;;;;;;;;;5392942;26;20404;-77
2024/04/15 08:16:58;;;;;;;1.67;1.10;;;;;;;;;;5413196;26;19995;-77
2024/04/15 08:19:24;;;;;;;1.70;1.40;;;;;;;;;;5415744;26;20020;-76
2024/04/15 08:21:50;;;;;;;1.55;1.45;;;;;;;;;;5429426;26;20011;-76
2024/04/15 08:24:16;;;;;;;1.65;1.45;;;;;;;;;;5429475;26;20404;-77
2024/04/15 08:26:43;;;;;;;1.50;1.40;;;;;;;;;;5418345;26;20080;-78
2024/04/15 08:29:10;;;;;;;1.50;1.30;;;;;;;;;;5406587;26;19995;-79
2024/04/15 08:31:36;;;;;;;1.35;1.23;;;;;;;;;;5402225;26;20000;-77
2024/04/15 08:34:02;;;;;;;2.35;1.00;;;;;;;;;;5417711;26;19996;-77
2024/04/15 08:36:28;;;;;;;1.40;1.27;;;;;;;;;;5416667;26;20446;-76
2024/04/15 08:38:55;;;;;;;2.63;1.55;;;;;;;;;;5432320;26;19995;-77
2024/04/15 08:41:22;;;;;;;1.50;1.30;;;;;;;;;;5420554;26;20012;-76
2024/04/15 08:43:48;;;;;;;2.75;1.63;;;;;;;;;;5420086;26;20004;-77
2024/04/15 08:46:18;;;;;;;2.75;1.77;;;;;;;;;;5423202;26;20012;-76
2024/04/15 08:48:44;;;;;;;1.45;1.35;;;;;;;;;;5430535;26;19992;-77
2024/04/15 08:51:10;;;;;;;3.30;1.42;;;;;;;;;;5420471;26;20002;-77
2024/04/15 08:53:37;;;;;;;1.83;1.73;;;;;;;;;;5423321;26;20011;-78
2024/04/15 08:56:03;;;;;;;1.40;1.30;;;;;;;;;;5422503;26;20001;-77
2024/04/15 08:58:30;;;;;;;1.45;1.35;;;;;;;;;;5421632;26;20011;-76
2024/04/15 09:00:57;;;;;;;1.17;1.08;;;;;;;;;;5423131;26;19996;-77
2024/04/15 09:03:24;;;;;;;1.85;1.38;;;;;;;;;;5419273;26;19996;-77
2024/04/15 09:05:50;;;;;;;1.90;1.48;;;;;;;;;;5419901;26;20511;-78
2024/04/15 09:08:16;;;;;;;2.38;1.08;;;;;;;;;;5414784;26;20313;-77
2024/04/15 09:10:42;;;;;;;1.88;1.23;;;;;;;;;;5429454;26;20006;-77
2024/04/15 09:13:09;;;;;;;1.40;1.20;;;;;;;;;;5415876;26;20010;-78
2024/04/15 09:15:36;;;;;;;2.42;1.60;;;;;;;;;;5422780;26;20480;-78
2024/04/15 09:18:03;;;;;;;1.48;1.38;;;;;;;;;;5423835;26;20126;-78
2024/04/15 09:20:29;;;;;;;1.65;1.42;;;;;;;;;;5430346;26;20003;-78
2024/04/15 09:22:56;;;;;;;1.92;1.73;;;;;;;;;;5431352;26;19996;-78
2024/04/15 09:25:22;;;;;;;1.67;1.58;;;;;;;;;;5413036;26;19991;-77
2024/04/15 09:27:48;;;;;;;1.98;1.83;;;;;;;;;;5423808;26;20007;-77
2024/04/15 09:30:14;;;;;;;2.40;1.70;;;;;;;;;;5425870;26;20076;-78
2024/04/15 09:32:42;;;;;;;1.75;1.63;;;;;;;;;;5426441;26;20007;-77
2024/04/15 09:35:08;;;;;;;2.15;1.40;;;;;;;;;;5414309;26;20011;-77
2024/04/15 09:37:35;;;;;;;1.88;1.63;;;;;;;;;;5419753;26;20129;-78
2024/04/15 09:40:07;;;;;;;1.98;1.88;;;;;;;;;;5426137;26;20007;-78
2024/04/15 09:42:34;;;;;;;2.30;2.10;;;;;;;;;;5426613;26;20028;-80
2024/04/15 09:45:00;;;;;;;1.98;1.88;;;;;;;;;;5413838;26;20011;-77
2024/04/15 09:47:27;;;;;;;2.72;1.80;;;;;;;;;;5427888;26;20006;-78
2024/04/15 09:49:53;;;;;;;4.88;2.72;;;;;;;;;;5424311;26;20015;-78
2024/04/15 09:52:22;;;;;;;2.75;2.22;;;;;;;;;;5405966;26;19995;-80
2024/04/15 09:54:53;;;;;;;3.03;2.72;;;;;;;;;;5429838;26;19999;-79
2024/04/15 09:57:20;;;;;;;2.92;2.63;;;;;;;;;;5421121;26;20010;-78
2024/04/15 09:59:50;;;;;;;4.15;3.03;;;;;;;;;;5421852;26;20007;-77
2024/04/15 10:02:22;;;;;;;2.63;2.08;;;;;;;;;;5424040;26;19996;-78
2024/04/15 10:04:49;;;;;;;2.90;2.70;;;;;;;;;;5429008;26;19995;-79
2024/04/15 10:07:15;;;;;;;4.07;3.08;;;;;;;;;;5407646;26;20003;-77
2024/04/15 10:09:42;;;;;;;3.30;2.83;;;;;;;;;;5414880;26;20015;-77
2024/04/15 10:12:08;;;;;;;2.90;2.60;;;;;;;;;;5431738;26;20032;-76
2024/04/15 10:14:34;;;;;;;2.60;2.40;;;;;;;;;;5430847;26;20010;-78
2024/04/15 10:17:00;;;;;;;3.85;2.60;;;;;;;;;;5418538;26;20045;-77
2024/04/15 10:19:32;;;;;;;5.60;3.70;;;;;;;;;;5428832;26;20384;-77
2024/04/15 10:21:58;;;;;;;3.50;2.80;;;;;;;;;;5433153;26;20004;-77
2024/04/15 10:24:25;;;;;;;3.65;2.70;;;;;;;;;;5434168;26;20007;-78
2024/04/15 10:26:56;;;;;;;5.70;4.07;;;;;;;;;;5429385;26;19996;-78
2024/04/15 10:29:24;;;;;;;5.53;3.90;;;;;;;;;;5429958;26;20000;-77
2024/04/15 10:31:51;;;;;;;9.15;4.82;;;;;;;;;;5404698;26;20094;-77
2024/04/15 10:34:17;;;;;;;19.58;10.68;;;;;;;;;;5433115;26;20011;-78
2024/04/15 10:36:48;;;;;;;16.77;9.23;;;;;;;;;;5433453;26;20011;-78
2024/04/15 10:39:17;;;;;;;11.95;7.38;;;;;;;;;;5421189;26;19995;-78
2024/04/15 10:41:44;;;;;;;8.50;6.32;;;;;;;;;;5436150;26;19999;-77
2024/04/15 10:44:11;;;;;;;14.13;7.28;;;;;;;;;;5427619;26;19996;-77
2024/04/15 10:46:40;;;;;;;7.97;5.68;;;;;;;;;;5412724;26;20010;-77
2024/04/15 10:49:07;;;;;;;6.22;5.13;;;;;;;;;;5433197;26;19996;-77
2024/04/15 10:51:34;;;;;;;7.20;4.82;;;;;;;;;;5414748;26;20011;-80
2024/04/15 10:54:04;;;;;;;12.35;7.28;;;;;;;;;;5422068;26;20028;-77
2024/04/15 10:56:30;;;;;;;9.73;5.50;;;;;;;;;;5411421;26;20004;-76
2024/04/15 10:58:56;;;;;;;8.35;4.95;;;;;;;;;;5413846;26;20022;-77
2024/04/15 11:01:22;;;;;;;5.13;3.70;;;;;;;;;;5411777;26;20004;-77
2024/04/15 11:03:49;;;;;;;5.57;2.97;;;;;;;;;;5422022;26;20003;-77
2024/04/15 11:06:19;;;;;;;4.85;3.47;;;;;;;;;;5433478;26;20006;-79
2024/04/15 11:08:45;;;;;;;4.50;3.10;;;;;;;;;;5398216;26;20000;-78
2024/04/15 11:11:15;;;;;;;3.13;2.65;;;;;;;;;;5428420;26;20003;-78
2024/04/15 11:13:42;;;;;;;4.15;2.88;;;;;;;;;;5419339;26;20027;-79
2024/04/15 11:16:15;;;;;;;3.17;2.60;;;;;;;;;;5430257;26;20010;-79
2024/04/15 11:18:41;;;;;;;3.45;2.72;;;;;;;;;;5416421;26;19996;-78
2024/04/15 11:21:09;;;;;;;8.52;5.32;;;;;;;;;;5411899;26;20000;-79
2024/04/15 11:23:36;;;;;;;10.52;7.40;;;;;;;;;;5427902;26;20000;-78
2024/04/15 11:26:02;;;;;;;8.88;6.22;;;;;;;;;;5413838;26;20006;-80
2024/04/15 11:28:29;;;;;;;8.68;6.07;;;;;;;;;;5429190;26;20082;-80
2024/04/15 11:30:56;;;;;;;5.15;4.35;;;;;;;;;;5402428;26;19999;-80
2024/04/15 11:33:22;;;;;;;4.93;3.83;;;;;;;;;;5422286;26;20002;-79
2024/04/15 11:35:50;;;;;;;4.10;3.45;;;;;;;;;;5414358;26;20059;-78
2024/04/15 11:38:16;;;;;;;4.00;3.25;;;;;;;;;;5387840;26;20004;-78
2024/04/15 11:40:42;;;;;;;3.65;2.65;;;;;;;;;;5409682;26;20000;-78
2024/04/15 11:43:08;;;;;;;4.07;2.80;;;;;;;;;;5432687;26;20210;-77
2024/04/15 11:45:35;;;;;;;2.42;2.22;;;;;;;;;;5438905;26;20035;-77
2024/04/15 11:48:01;;;;;;;2.15;1.88;;;;;;;;;;5437476;26;19998;-77
2024/04/15 11:50:27;;;;;;;3.30;2.20;;;;;;;;;;5439023;26;20051;-75
2024/04/15 11:52:57;;;;;;;2.00;1.75;;;;;;;;;;5438761;26;19994;-78
2024/04/15 11:55:23;;;;;;;1.60;1.50;;;;;;;;;;5437363;26;19994;-78
2024/04/15 11:57:50;;;;;;;1.33;1.23;;;;;;;;;;5402252;26;20000;-79
2024/04/15 12:00:16;;;;;;;2.13;1.52;;;;;;;;;;5431991;26;20004;-79
2024/04/15 12:02:43;;;;;;;1.75;1.65;;;;;;;;;;5429804;26;20049;-79
2024/04/15 12:05:10;;;;;;;1.63;1.52;;;;;;;;;;5425304;26;20003;-77
2024/04/15 12:07:38;;;;;;;1.50;1.40;;;;;;;;;;5392727;26;20003;-79
2024/04/15 12:10:06;;;;;;;1.17;1.15;;;;;;;;;;5409753;26;20011;-79
2024/04/15 12:12:32;;;;;;;2.00;1.42;;;;;;;;;;5423354;26;20350;-79
2024/04/15 12:14:58;;;;;;;1.92;1.13;;;;;;;;;;5423705;26;20000;-79
2024/04/15 12:17:25;;;;;;;1.60;1.50;;;;;;;;;;5413063;26;20004;-79
2024/04/15 12:19:51;;;;;;;2.45;1.77;;;;;;;;;;5406708;26;20015;-79
2024/04/15 12:22:17;;;;;;;2.63;1.75;;;;;;;;;;5401070;26;20373;-78
2024/04/15 12:24:43;;;;;;;1.67;1.58;;;;;;;;;;5420780;26;20026;-81
2024/04/15 12:27:09;;;;;;;1.25;1.00;;;;;;;;;;5404783;26;19996;-79
2024/04/15 12:29:35;;;;;;;1.88;1.25;;;;;;;;;;5421111;26;20004;-79
2024/04/15 12:32:02;;;;;;;1.70;1.45;;;;;;;;;;5426665;26;19991;-79
2024/04/15 12:34:28;;;;;;;1.73;1.55;;;;;;;;;;5428381;26;20065;-79
2024/04/15 12:36:54;;;;;;;1.40;1.30;;;;;;;;;;5421377;26;20045;-79
2024/04/15 12:39:20;;;;;;;2.28;1.75;;;;;;;;;;5413327;26;20013;-79
2024/04/15 12:41:46;;;;;;;2.22;1.25;;;;;;;;;;5410367;26;20004;-79
2024/04/15 12:44:12;;;;;;;1.52;1.42;;;;;;;;;;5406887;26;20075;-77
2024/04/15 12:46:39;;;;;;;1.23;1.17;;;;;;;;;;5417134;26;20446;-78
2024/04/15 12:49:11;;;;;;;1.10;1.10;;;;;;;;;;5395307;26;20051;-79
2024/04/15 12:51:37;;;;;;;0.88;0.88;;;;;;;;;;5395344;26;20000;-79
2024/04/15 12:54:03;;;;;;;1.20;1.10;;;;;;;;;;5397850;26;20000;-78
2024/04/15 12:56:29;;;;;;;0.85;0.85;;;;;;;;;;5411290;26;20010;-77
2024/04/15 12:58:56;;;;;;;1.88;1.30;;;;;;;;;;5410622;26;20067;-78
2024/04/15 13:01:22;;;;;;;1.85;1.45;;;;;;;;;;5416581;26;20048;-77
2024/04/15 13:03:48;;;;;;;1.63;1.33;;;;;;;;;;5422505;26;20098;-77
2024/04/15 13:06:14;;;;;;;1.38;1.15;;;;;;;;;;5419668;26;20470;-78
2024/04/15 13:08:40;;;;;;;1.23;1.10;;;;;;;;;;5394289;26;20454;-77
2024/04/15 13:11:08;;;;;;;1.13;0.70;;;;;;;;;;5405071;26;20011;-77
2024/04/15 13:13:34;;;;;;;1.40;1.30;;;;;;;;;;5399482;26;20004;-78
2024/04/15 13:16:23;;;;;;;1.25;1.20;;;;;;;;;;5417718;26;20036;-77
2024/04/15 13:18:50;;;;;;;0.90;0.90;;;;;;;;;;5417649;26;19999;-78
2024/04/15 13:21:16;;;;;;;1.75;1.10;;;;;;;;;;5410365;26;20010;-78
2024/04/15 13:23:44;;;;;;;1.58;1.48;;;;;;;;;;5420845;26;20003;-78
2024/04/15 13:26:10;;;;;;;1.50;1.33;;;;;;;;;;5410154;26;19992;-78
2024/04/15 13:28:36;;;;;;;1.73;1.20;;;;;;;;;;5425661;26;20404;-78
2024/04/15 13:31:03;;;;;;;1.08;1.00;;;;;;;;;;5410430;26;20330;-78
2024/04/15 13:33:32;;;;;;;1.40;1.30;;;;;;;;;;5398184;26;20000;-77
2024/04/15 13:35:59;;;;;;;4.78;3.30;;;;;;;;;;5404694;26;20015;-76
2024/04/15 13:38:26;;;;;;;4.28;3.10;;;;;;;;;;5416476;26;20090;-77
2024/04/15 13:40:52;;;;;;;6.35;4.25;;;;;;;;;;5418641;26;19996;-78
2024/04/15 13:43:19;;;;;;;8.00;5.65;;;;;;;;;;5420520;26;20066;-75
2024/04/15 13:45:46;;;;;;;5.57;4.20;;;;;;;;;;5419650;26;20337;-78
2024/04/15 13:48:12;;;;;;;4.97;3.95;;;;;;;;;;5419297;26;20010;-76
2024/04/15 13:50:38;;;;;;;8.15;4.72;;;;;;;;;;5424838;26;20019;-80
2024/04/15 13:53:04;;;;;;;7.40;4.68;;;;;;;;;;5414015;26;20014;-77
2024/04/15 13:55:30;;;;;;;5.57;4.07;;;;;;;;;;5425100;26;20044;-77
2024/04/15 13:57:57;;;;;;;4.93;3.00;;;;;;;;;;5398165;26;19999;-77
2024/04/15 14:00:23;;;;;;;4.18;2.80;;;;;;;;;;5392783;26;20015;-77
2024/04/15 14:02:49;;;;;;;3.03;2.22;;;;;;;;;;5402107;26;20003;-77
2024/04/15 14:05:15;;;;;;;2.47;2.15;;;;;;;;;;5407457;26;20008;-78
2024/04/15 14:07:41;;;;;;;2.45;2.10;;;;;;;;;;5398021;26;20011;-78
2024/04/15 14:10:09;;;;;;;2.30;2.03;;;;;;;;;;5416443;26;19999;-77
2024/04/15 14:12:35;;;;;;;1.52;1.42;;;;;;;;;;5416362;26;20409;-76
2024/04/15 14:15:01;;;;;;;1.90;1.70;;;;;;;;;;5411128;26;19993;-77
2024/04/15 14:17:27;;;;;;;1.20;1.10;;;;;;;;;;5411890;26;20073;-77
2024/04/15 14:19:54;;;;;;;1.58;1.25;;;;;;;;;;5410241;26;20080;-78
2024/04/15 14:22:20;;;;;;;1.58;1.45;;;;;;;;;;5412458;26;20340;-78
2024/04/15 14:24:47;;;;;;;1.52;1.42;;;;;;;;;;5421178;26;20000;-77
2024/04/15 14:27:13;;;;;;;2.00;1.40;;;;;;;;;;5425096;26;20007;-78
2024/04/15 14:29:39;;;;;;;1.48;1.38;;;;;;;;;;5418294;26;19999;-76
2024/04/15 14:32:06;;;;;;;3.83;2.97;;;;;;;;;;5405931;26;20000;-77
2024/04/15 14:34:32;;;;;;;2.55;2.00;;;;;;;;;;5407853;26;20010;-78
2024/04/15 14:37:01;;;;;;;5.13;2.30;;;;;;;;;;5407122;26;20045;-77
2024/04/15 14:39:28;;;;;;;5.75;2.65;;;;;;;;;;5403261;26;20523;-76